This is the latest recevied weather packets stored in our database for station/object N8XHB. If no packets are shown the sender has not sent any weather packets the latest 10 day(s).
| Time | Temp. | Humidity | Pressure | Rain* | Wind** | Luminosity | Snow |
|---|---|---|---|---|---|---|---|
| 1777946926 | 17.78° C | 71% | 998.7 hPa | 13.72 mm | - | 0 W/m² | - |
| 1777946621 | 19.44° C | 66% | 998.7 hPa | 7.87 mm | - | 0 W/m² | - |
| 1777946318 | 20.56° C | 56% | 999 hPa | 0 mm | - | 0 W/m² | - |
| 1777946016 | 20.56° C | 55% | 998.4 hPa | 0 mm | - | 0 W/m² | - |
| 1777945713 | 20.56° C | 55% | 997.8 hPa | 0 mm | - | 0 W/m² | - |
| 1777945410 | 20.56° C | 55% | 997.8 hPa | 0 mm | - | 0 W/m² | - |
| 1777945106 | 20.56° C | 54% | 997.8 hPa | 0 mm | - | 0 W/m² | - |
| 1777944804 | 20.56° C | 54% | 997.6 hPa | 0 mm | - | 0 W/m² | - |
| 1777944502 | 21.11° C | 53% | 997.6 hPa | 0 mm | - | 0 W/m² | - |
| 1777944199 | 21.11° C | 53% | 997.7 hPa | 0 mm | - | 0 W/m² | - |
| 1777943895 | 21.11° C | 52% | 997.7 hPa | 0 mm | - | 0 W/m² | - |
| 1777943592 | 21.11° C | 51% | 997.3 hPa | 0 mm | - | 0 W/m² | - |
| 1777943288 | 21.11° C | 49% | 997.8 hPa | 0 mm | - | 0 W/m² | - |
| 1777942984 | 21.67° C | 48% | 997.6 hPa | 0 mm | - | 0 W/m² | - |
| 1777942681 | 21.67° C | 46% | 997.5 hPa | 0 mm | - | 1 W/m² | - |
| 1777942378 | 21.67° C | 44% | 997.6 hPa | 0 mm | - | 1 W/m² | - |
| 1777942075 | 22.22° C | 42% | 997.5 hPa | 0 mm | - | 2 W/m² | - |
| 1777941771 | 22.22° C | 41% | 997.3 hPa | 0 mm | - | 3 W/m² | - |
| 1777941469 | 22.22° C | 40% | 997.5 hPa | 0 mm | - | 5 W/m² | - |
| 1777941166 | 22.22° C | 37% | 997.3 hPa | 0 mm | - | 7 W/m² | - |
| 1777940862 | 22.22° C | 36% | 997.2 hPa | 0 mm | - | 10 W/m² | - |
| 1777940560 | 22.22° C | 35% | 997.2 hPa | 0 mm | - | 13 W/m² | - |
| 1777940257 | 22.78° C | 35% | 997.1 hPa | 0 mm | - | 16 W/m² | - |
| 1777939955 | 22.78° C | 34% | 996.9 hPa | 0 mm | - | 19 W/m² | - |
| 1777939651 | 22.78° C | 34% | 997.1 hPa | 0 mm | - | 21 W/m² | - |
* Rain latest hour (hover to see other rain measurements)
** Current wind speed in m/s (hover to see current wind gust speed)